Granby, Vermont
Current Conditions -  °F | °C
As of 2:52 PM on Monday 26 Jan 2015 (Local Time) from KHIE Reporting Station
Clear Clear  
Wind Chill: 17°   Ceiling: Unl
Heat Index: 17°   Visibility: 10mi
Dew Point: -3°   Wind: 3mph
Humidity: 41%   Direction: 40°NE
Pressure: 30.01"   Gusts: NA
Location:  44.57°N, 71.76°W
Report Text: KHIE 261952Z AUTO 04003KT 10SM CLR M08/M19 A3001 RMK AO2 SLP191 T10831194
Loading
Personal Weather Stations






























Interactive Weather Map New forecast layout! Learn more

10-Day Weather Forecast

Advertisements
Track Severe Weather on mobile